Terminal Aerodrome Forecast
Issued by NWS Pocatello, ID

Home | Current Version | Previous Version | Text Only | Print | Product List | Glossary On
Versions: 1 2 3 4 5 6 7 8 9 10 11 12 13 14 15 16 17 18 19 20
638
FTUS45 KPIH 291720
TAFPIH
TAF
KPIH 291720Z 2918/3018 23011G21KT P6SM SCT040 BKN080
     FM300200 20012KT P6SM VCSH SCT020 OVC050
     FM300600 19014G24KT P6SM -SHRA OVC030
     FM300900 19014G24KT 6SM -SHRA BR SCT015 OVC030=

USA.gov is the U.S. government's official web portal to all federal, state and local government web resources and services.